Time;durP1;ratioP1;P1;durP2;ratioP2;P2;SDS_P1;SDS_P2;PMS_P1;PMS_P2;Temp;Humidity;BMP_temperature;BMP_pressure;BME280_temperature;BME280_humidity;BME280_pressure;Samples;Min_cycle;Max_cycle;Signal;HPM_P1;HPM_P2
2021/04/09 00:01:23;;;;;;;12.43;8.27;;;5.40;84.10;;;;;;5065579;28;20376;-39
2021/04/09 00:03:49;;;;;;;11.90;8.75;;;5.40;84.00;;;;;;5066040;28;20204;-36
2021/04/09 00:06:15;;;;;;;13.27;9.75;;;5.40;84.20;;;;;;5065390;28;20101;-38
2021/04/09 00:08:40;;;;;;;12.45;9.30;;;5.40;84.30;;;;;;5065167;28;20029;-39
2021/04/09 00:11:06;;;;;;;12.27;9.43;;;5.40;84.30;;;;;;5064823;28;20194;-38
2021/04/09 00:13:31;;;;;;;14.10;9.35;;;5.40;84.50;;;;;;5065217;28;20127;-38
2021/04/09 00:15:57;;;;;;;10.45;8.25;;;5.40;84.40;;;;;;5065872;28;20143;-39
2021/04/09 00:18:22;;;;;;;12.13;8.95;;;5.40;84.40;;;;;;5065137;28;20229;-37
2021/04/09 00:20:48;;;;;;;10.93;9.10;;;5.30;84.40;;;;;;5065148;28;20036;-39
2021/04/09 00:23:13;;;;;;;14.35;9.38;;;5.30;84.50;;;;;;5065686;28;20135;-38
2021/04/09 00:25:39;;;;;;;15.35;9.48;;;5.30;84.50;;;;;;5065054;28;20147;-38
2021/04/09 00:28:04;;;;;;;15.32;9.20;;;5.30;84.50;;;;;;5065127;28;20032;-39
2021/04/09 00:30:30;;;;;;;12.38;8.80;;;5.30;84.50;;;;;;5065388;28;20012;-36
2021/04/09 00:32:56;;;;;;;11.82;8.30;;;5.20;84.50;;;;;;5065143;28;20017;-38
2021/04/09 00:35:22;;;;;;;10.07;7.65;;;5.20;84.50;;;;;;5065604;28;20146;-39
2021/04/09 00:37:48;;;;;;;10.90;7.32;;;5.20;84.60;;;;;;5064922;28;20500;-38
2021/04/09 00:40:14;;;;;;;11.77;8.02;;;5.20;84.60;;;;;;5065205;28;20090;-38
2021/04/09 00:42:43;;;;;;;10.57;8.15;;;5.10;84.70;;;;;;5064894;28;20525;-40
2021/04/09 00:45:13;;;;;;;10.82;8.00;;;5.10;84.80;;;;;;5065258;28;20035;-39
2021/04/09 00:47:42;;;;;;;10.48;7.60;;;5.10;84.80;;;;;;5064830;28;20044;-37
2021/04/09 00:50:09;;;;;;;10.98;8.65;;;5.10;84.90;;;;;;5064942;28;20122;-38
2021/04/09 00:52:37;;;;;;;12.88;9.40;;;5.10;84.90;;;;;;5065089;28;20036;-40
2021/04/09 00:55:04;;;;;;;14.30;10.27;;;5.10;84.90;;;;;;5063002;28;20028;-40
2021/04/09 00:57:30;;;;;;;12.98;9.38;;;5.10;85.00;;;;;;5064622;28;20099;-38
2021/04/09 00:59:56;;;;;;;12.13;9.48;;;5.10;84.90;;;;;;5064444;28;20021;-38
2021/04/09 01:02:22;;;;;;;11.02;8.45;;;5.10;84.90;;;;;;5064662;28;20027;-39
2021/04/09 01:04:48;;;;;;;12.02;8.48;;;5.10;84.80;;;;;;5064559;28;20051;-38
2021/04/09 01:07:13;;;;;;;14.43;9.90;;;5.10;84.90;;;;;;5065058;28;20036;-38
2021/04/09 01:09:39;;;;;;;13.35;9.00;;;5.10;84.80;;;;;;5064065;28;20183;-39
2021/04/09 01:12:05;;;;;;;11.13;8.65;;;5.20;84.90;;;;;;5065100;28;20048;-38
2021/04/09 01:14:32;;;;;;;12.73;8.95;;;5.20;84.90;;;;;;5063772;28;20049;-39
2021/04/09 01:17:19;;;;;;;13.50;9.20;;;5.20;84.90;;;;;;5064684;28;20025;-34
2021/04/09 01:20:13;;;;;;;12.82;8.25;;;5.10;84.90;;;;;;5064164;28;20037;-38
2021/04/09 01:23:17;;;;;;;12.00;8.20;;;5.10;84.90;;;;;;5064165;28;20044;-37
2021/04/09 01:25:58;;;;;;;11.23;8.25;;;5.10;84.90;;;;;;5054574;28;20044;-43
2021/04/09 01:28:30;;;;;;;15.00;8.98;;;5.10;85.00;;;;;;5064298;28;20029;-39
2021/04/09 01:31:02;;;;;;;10.50;8.33;;;5.10;85.00;;;;;;5064038;28;20029;-42
2021/04/09 01:33:37;;;;;;;14.27;8.90;;;5.10;85.00;;;;;;5064869;28;20282;-37
2021/04/09 01:36:09;;;;;;;11.82;8.07;;;5.10;85.10;;;;;;5063644;28;20055;-37
2021/04/09 01:38:39;;;;;;;12.18;8.57;;;5.10;85.10;;;;;;5064210;28;20102;-38
2021/04/09 01:41:06;;;;;;;9.98;7.78;;;5.10;85.20;;;;;;5060166;28;20032;-38
2021/04/09 01:43:33;;;;;;;9.85;7.47;;;5.10;85.10;;;;;;5043656;28;20033;-38
2021/04/09 01:46:02;;;;;;;10.75;8.50;;;5.10;85.20;;;;;;5057591;28;20139;-41
2021/04/09 01:48:28;;;;;;;11.13;8.02;;;5.10;85.20;;;;;;5064720;28;20033;-40
2021/04/09 01:50:54;;;;;;;11.95;8.52;;;5.10;85.30;;;;;;5063752;28;20128;-35
2021/04/09 01:53:25;;;;;;;12.48;8.77;;;5.10;85.40;;;;;;5064426;28;20413;-40
2021/04/09 01:55:56;;;;;;;11.50;7.75;;;5.10;85.40;;;;;;5063694;28;20413;-36
2021/04/09 01:58:23;;;;;;;13.52;9.65;;;5.10;85.40;;;;;;5064951;28;20033;-38
2021/04/09 02:00:50;;;;;;;14.73;9.68;;;5.20;85.50;;;;;;5064044;28;20078;-38
2021/04/09 02:03:21;;;;;;;11.38;8.68;;;5.10;85.50;;;;;;5064559;28;20032;-37
2021/04/09 02:05:47;;;;;;;11.68;8.80;;;5.10;85.40;;;;;;5063674;28;20028;-39
2021/04/09 02:08:13;;;;;;;11.75;8.88;;;5.20;85.50;;;;;;5064543;28;20044;-35
2021/04/09 02:10:39;;;;;;;13.40;8.68;;;5.20;85.50;;;;;;5063607;28;20128;-37
2021/04/09 02:13:07;;;;;;;14.65;10.38;;;5.10;85.50;;;;;;5064264;28;20158;-36
2021/04/09 02:15:54;;;;;;;14.95;10.73;;;5.20;85.70;;;;;;5064183;28;20073;-35
2021/04/09 02:18:20;;;;;;;15.77;11.18;;;5.20;85.90;;;;;;5063919;28;20016;-38
2021/04/09 02:20:46;;;;;;;15.35;11.25;;;5.20;85.90;;;;;;5063864;28;20095;-37
2021/04/09 02:23:12;;;;;;;17.42;10.63;;;5.20;86.00;;;;;;5064403;28;20664;-36
2021/04/09 02:25:37;;;;;;;15.02;11.05;;;5.10;86.10;;;;;;5063523;28;20033;-38
2021/04/09 02:28:03;;;;;;;14.55;9.75;;;5.20;86.20;;;;;;5063499;28;20047;-38
2021/04/09 02:30:29;;;;;;;13.40;9.55;;;5.10;86.10;;;;;;5064089;28;20032;-37
2021/04/09 02:32:54;;;;;;;15.20;10.68;;;5.10;86.20;;;;;;5064543;28;20036;-37
2021/04/09 02:35:20;;;;;;;15.32;11.18;;;5.20;86.40;;;;;;5067971;28;20450;-38
2021/04/09 02:37:53;;;;;;;17.42;11.93;;;5.20;86.40;;;;;;5067333;28;20086;-38
2021/04/09 02:40:31;;;;;;;;;;;5.20;86.70;;;;;;5068264;28;20052;-37
2021/04/09 02:42:57;;;;;;;17.88;12.23;;;5.20;86.70;;;;;;5067409;28;20015;-38
2021/04/09 02:45:25;;;;;;;15.25;11.30;;;5.20;86.70;;;;;;5067569;28;20115;-37
2021/04/09 02:47:57;;;;;;;17.98;12.38;;;5.20;86.60;;;;;;5066797;28;20071;-36
2021/04/09 02:50:42;;;;;;;18.42;11.48;;;5.20;86.60;;;;;;5067767;28;20017;-41
2021/04/09 02:53:17;;;;;;;19.00;11.50;;;5.20;86.50;;;;;;5066852;28;20039;-39
2021/04/09 02:55:45;;;;;;;16.73;11.55;;;5.20;86.50;;;;;;5067443;28;20131;-35
2021/04/09 02:58:13;;;;;;;19.88;12.93;;;5.20;86.60;;;;;;5067348;28;20118;-38
2021/04/09 03:00:44;;;;;;;19.65;12.70;;;5.30;86.80;;;;;;5066790;28;20047;-38
2021/04/09 03:03:11;;;;;;;21.88;13.68;;;5.30;87.60;;;;;;5067538;28;20016;-39
2021/04/09 03:05:40;;;;;;;21.63;13.43;;;5.30;87.00;;;;;;5067267;28;20040;-35
2021/04/09 03:08:07;;;;;;;23.27;15.10;;;5.20;86.90;;;;;;5066385;28;20428;-39
2021/04/09 03:10:33;;;;;;;23.00;13.82;;;5.30;87.10;;;;;;5067212;28;20059;-37
2021/04/09 03:12:58;;;;;;;19.92;12.88;;;5.30;87.20;;;;;;5066574;28;20068;-38
2021/04/09 03:15:27;;;;;;;22.10;13.80;;;5.30;87.30;;;;;;5066240;28;20024;-36
2021/04/09 03:18:02;;;;;;;20.67;12.95;;;5.30;87.30;;;;;;5066942;28;20031;-38
2021/04/09 03:20:28;;;;;;;26.42;14.43;;;5.30;87.30;;;;;;5055820;28;20025;-38
2021/04/09 03:22:54;;;;;;;15.93;11.40;;;5.30;87.40;;;;;;5066200;28;20024;-38
2021/04/09 03:25:19;;;;;;;15.50;11.23;;;5.30;87.40;;;;;;5066985;28;20032;-38
2021/04/09 03:27:45;;;;;;;17.30;11.68;;;5.30;87.30;;;;;;5066699;28;20045;-38
2021/04/09 03:30:12;;;;;;;16.75;10.77;;;5.30;87.40;;;;;;5066364;28;20525;-34
2021/04/09 03:32:38;;;;;;;15.18;10.60;;;5.30;87.40;;;;;;5066611;28;20035;-36
2021/04/09 03:35:04;;;;;;;17.13;11.82;;;5.30;87.50;;;;;;5066311;28;20340;-38
2021/04/09 03:37:30;;;;;;;18.15;11.73;;;5.20;87.50;;;;;;5066454;28;20059;-37
2021/04/09 03:39:55;;;;;;;21.05;13.07;;;5.30;87.60;;;;;;5066463;28;20060;-38
2021/04/09 03:42:21;;;;;;;19.45;13.15;;;5.30;87.70;;;;;;5066803;28;20959;-38
2021/04/09 03:44:47;;;;;;;17.23;11.70;;;5.30;87.70;;;;;;5065668;28;20024;-38
2021/04/09 03:47:12;;;;;;;18.63;13.07;;;5.30;87.80;;;;;;5066464;28;20037;-37
2021/04/09 03:49:38;;;;;;;19.30;11.82;;;5.30;87.80;;;;;;5065988;28;20067;-41
2021/04/09 03:52:04;;;;;;;18.42;12.25;;;5.30;88.00;;;;;;5066130;28;20032;-39
2021/04/09 03:54:29;;;;;;;19.08;11.63;;;5.30;88.10;;;;;;5065938;28;20040;-39
2021/04/09 03:56:55;;;;;;;20.63;12.45;;;5.20;88.00;;;;;;5066114;28;20055;-38
2021/04/09 03:59:20;;;;;;;19.23;13.10;;;5.20;88.30;;;;;;5066529;28;20019;-39
2021/04/09 04:01:46;;;;;;;15.30;10.65;;;5.20;88.30;;;;;;5066557;28;20025;-39
2021/04/09 04:04:12;;;;;;;16.35;11.05;;;5.20;88.40;;;;;;5065533;28;20021;-37
2021/04/09 04:06:37;;;;;;;15.30;10.70;;;5.20;88.40;;;;;;5065805;28;20400;-36
2021/04/09 04:09:04;;;;;;;16.60;11.02;;;5.20;88.50;;;;;;5066002;28;20341;-35
2021/04/09 04:11:29;;;;;;;16.58;10.50;;;5.10;88.70;;;;;;5064928;28;20380;-39
2021/04/09 04:13:55;;;;;;;17.98;11.55;;;5.20;88.70;;;;;;5065627;28;20789;-39
2021/04/09 04:16:20;;;;;;;14.70;10.45;;;5.20;88.80;;;;;;5066037;28;20028;-37
2021/04/09 04:18:46;;;;;;;16.92;12.38;;;5.20;88.80;;;;;;5065165;28;20366;-37
2021/04/09 04:21:12;;;;;;;17.65;12.20;;;5.20;88.90;;;;;;5065433;28;20159;-34
2021/04/09 04:23:37;;;;;;;20.73;12.30;;;5.20;89.30;;;;;;5065756;28;20493;-34
2021/04/09 04:26:03;;;;;;;20.17;12.40;;;5.20;89.30;;;;;;5065149;28;20448;-37
2021/04/09 04:28:28;;;;;;;17.65;11.95;;;5.20;89.50;;;;;;5065936;28;20116;-37
2021/04/09 04:30:55;;;;;;;19.38;11.82;;;5.20;89.50;;;;;;5066011;28;20024;-39
2021/04/09 04:33:21;;;;;;;18.27;12.60;;;5.20;89.50;;;;;;5065895;28;20013;-37
2021/04/09 04:35:48;;;;;;;19.00;12.50;;;5.20;89.80;;;;;;5065600;28;20039;-39
2021/04/09 04:38:14;;;;;;;20.63;12.10;;;5.20;89.70;;;;;;5066280;28;20024;-38
2021/04/09 04:40:40;;;;;;;15.85;12.00;;;5.20;89.80;;;;;;5065149;28;20071;-39
2021/04/09 04:43:06;;;;;;;15.85;11.38;;;5.10;89.80;;;;;;5065714;28;20088;-38
2021/04/09 04:45:32;;;;;;;19.38;12.68;;;5.20;89.80;;;;;;5064886;28;20383;-40
2021/04/09 04:47:58;;;;;;;17.17;11.70;;;5.20;90.00;;;;;;5062250;28;20137;-40
2021/04/09 04:50:23;;;;;;;18.15;12.27;;;5.20;90.00;;;;;;5066125;28;20020;-36
2021/04/09 04:52:49;;;;;;;16.02;11.07;;;5.20;90.00;;;;;;5064746;28;20422;-39
2021/04/09 04:55:15;;;;;;;15.88;10.40;;;5.20;89.90;;;;;;5065047;28;20025;-38
2021/04/09 04:57:40;;;;;;;15.32;10.23;;;5.20;89.90;;;;;;5064852;28;20048;-39
2021/04/09 05:00:06;;;;;;;14.40;10.40;;;5.20;89.80;;;;;;5044578;28;20371;-39
2021/04/09 05:02:32;;;;;;;16.92;11.52;;;5.20;89.80;;;;;;5059307;28;20020;-37
2021/04/09 05:04:57;;;;;;;14.35;11.30;;;5.20;89.80;;;;;;5065168;28;20436;-37
2021/04/09 05:07:23;;;;;;;15.38;10.02;;;5.20;89.90;;;;;;5064682;28;20424;-39
2021/04/09 05:09:49;;;;;;;15.80;11.10;;;5.20;89.80;;;;;;5064810;28;20352;-38
2021/04/09 05:12:14;;;;;;;16.10;10.27;;;5.20;89.90;;;;;;5065362;28;20040;-39
2021/04/09 05:14:40;;;;;;;12.68;9.20;;;5.10;90.00;;;;;;5063954;28;20476;-38
2021/04/09 05:17:05;;;;;;;14.20;9.13;;;5.10;90.00;;;;;;5064345;28;20473;-39
2021/04/09 05:19:34;;;;;;;16.23;11.05;;;5.10;90.00;;;;;;5064978;28;20139;-38
2021/04/09 05:21:59;;;;;;;16.42;10.90;;;5.10;90.10;;;;;;5064077;28;20084;-39
2021/04/09 05:24:25;;;;;;;15.07;10.13;;;5.10;90.10;;;;;;5064470;28;20076;-40
2021/04/09 05:26:53;;;;;;;14.90;9.85;;;5.10;90.10;;;;;;5064941;28;20036;-39
2021/04/09 05:29:18;;;;;;;12.18;9.73;;;5.10;90.10;;;;;;5064434;28;20071;-38
2021/04/09 05:31:47;;;;;;;12.10;9.20;;;5.10;90.10;;;;;;5064773;28;20724;-39
2021/04/09 05:34:13;;;;;;;14.88;9.65;;;5.10;90.10;;;;;;5064934;28;20036;-42
2021/04/09 05:36:38;;;;;;;12.40;9.13;;;5.10;90.10;;;;;;5063927;28;20044;-40
2021/04/09 05:39:04;;;;;;;12.32;9.32;;;5.10;90.10;;;;;;5064080;28;20028;-39
2021/04/09 05:41:29;;;;;;;15.05;9.55;;;5.10;90.10;;;;;;5064738;28;20048;-39
2021/04/09 05:43:55;;;;;;;12.57;9.32;;;5.20;90.10;;;;;;5064113;28;20029;-34
2021/04/09 05:46:20;;;;;;;14.02;9.95;;;5.20;90.10;;;;;;5064976;28;20029;-38
2021/04/09 05:48:46;;;;;;;18.67;11.48;;;5.20;90.10;;;;;;5063703;28;20487;-39
2021/04/09 05:51:11;;;;;;;14.98;11.43;;;5.20;90.20;;;;;;5064801;28;20434;-36
2021/04/09 05:53:39;;;;;;;15.90;10.75;;;5.20;90.20;;;;;;5064642;28;20024;-39
2021/04/09 05:56:05;;;;;;;17.77;11.75;;;5.20;90.20;;;;;;5064245;28;20021;-37
2021/04/09 05:58:30;;;;;;;15.45;10.85;;;5.20;90.30;;;;;;5064295;28;20034;-38
2021/04/09 06:00:56;;;;;;;13.23;9.70;;;5.20;90.20;;;;;;5064624;28;20025;-39
2021/04/09 06:03:21;;;;;;;14.18;10.35;;;5.20;90.20;;;;;;5064451;28;20017;-39
2021/04/09 06:05:50;;;;;;;13.57;9.98;;;5.30;90.20;;;;;;5063902;28;20045;-41
2021/04/09 06:08:15;;;;;;;12.63;9.73;;;5.30;90.20;;;;;;5067704;28;20041;-35
2021/04/09 06:10:41;;;;;;;13.68;8.95;;;5.30;90.20;;;;;;5067481;28;20049;-38
2021/04/09 06:13:06;;;;;;;12.63;9.65;;;5.40;90.20;;;;;;5068061;28;20044;-39
2021/04/09 06:15:33;;;;;;;14.00;9.98;;;5.40;90.20;;;;;;5068242;28;20094;-39
2021/04/09 06:17:59;;;;;;;12.00;9.10;;;5.50;90.20;;;;;;5068074;28;20108;-37
2021/04/09 06:20:24;;;;;;;15.15;10.90;;;5.50;90.20;;;;;;5067769;28;20127;-36
2021/04/09 06:22:50;;;;;;;16.95;11.27;;;5.60;90.20;;;;;;5066895;28;20028;-39
2021/04/09 06:25:19;;;;;;;16.77;11.25;;;5.70;90.10;;;;;;5065289;28;20325;-39
2021/04/09 06:27:45;;;;;;;17.90;11.93;;;5.80;90.10;;;;;;5060752;28;20625;-38
2021/04/09 06:30:11;;;;;;;15.60;10.05;;;5.90;90.00;;;;;;5064967;28;20025;-37
2021/04/09 06:32:37;;;;;;;14.95;11.02;;;6.00;89.90;;;;;;5066245;28;20439;-35
2021/04/09 06:35:03;;;;;;;15.15;12.10;;;6.10;89.80;;;;;;5066855;28;20025;-39
2021/04/09 06:37:30;;;;;;;17.92;11.73;;;6.10;89.50;;;;;;5066896;28;20371;-39
2021/04/09 06:39:56;;;;;;;13.52;10.85;;;6.20;89.50;;;;;;5065069;28;20115;-36
2021/04/09 06:42:21;;;;;;;14.35;10.57;;;6.30;89.60;;;;;;5066711;28;20119;-37
2021/04/09 06:44:48;;;;;;;15.05;10.35;;;6.40;89.40;;;;;;5067473;28;20025;-38
2021/04/09 06:47:20;;;;;;;16.52;11.38;;;6.50;89.20;;;;;;5066680;28;20047;-37
2021/04/09 06:49:46;;;;;;;13.23;10.38;;;6.60;88.80;;;;;;5066880;28;20035;-41
2021/04/09 06:52:14;;;;;;;16.13;10.05;;;6.70;88.80;;;;;;5067774;28;20021;-38
2021/04/09 06:54:41;;;;;;;12.07;9.60;;;6.70;88.70;;;;;;5067098;28;20062;-39
2021/04/09 06:57:10;;;;;;;11.65;9.52;;;6.80;88.60;;;;;;5067471;28;20046;-38
2021/04/09 06:59:39;;;;;;;12.77;10.07;;;6.90;88.30;;;;;;5067213;28;20103;-36
2021/04/09 07:02:05;;;;;;;15.38;10.30;;;7.00;88.40;;;;;;5067097;28;20151;-36
2021/04/09 07:04:30;;;;;;;15.05;9.52;;;7.10;88.10;;;;;;5067085;28;20016;-39
2021/04/09 07:06:56;;;;;;;13.18;9.18;;;7.10;88.00;;;;;;5067130;28;20059;-38
2021/04/09 07:09:22;;;;;;;11.45;9.50;;;7.20;88.00;;;;;;5067336;28;20031;-39
2021/04/09 07:11:52;;;;;;;12.68;9.20;;;7.20;87.90;;;;;;5066612;28;20024;-39
2021/04/09 07:14:18;;;;;;;14.57;10.73;;;7.20;87.90;;;;;;5066903;28;20052;-38
2021/04/09 07:16:57;;;;;;;13.15;10.35;;;7.30;87.90;;;;;;5066673;28;20398;-38
2021/04/09 07:19:34;;;;;;;14.52;9.90;;;7.30;87.90;;;;;;5066708;28;20064;-38
2021/04/09 07:22:05;;;;;;;13.43;10.27;;;7.30;87.90;;;;;;5066385;28;20032;-37
2021/04/09 07:24:31;;;;;;;14.93;10.32;;;7.40;87.80;;;;;;5066851;28;20028;-40
2021/04/09 07:26:58;;;;;;;12.85;9.07;;;7.50;87.60;;;;;;5066779;28;20024;-38
2021/04/09 07:29:30;;;;;;;13.95;9.43;;;7.60;87.70;;;;;;5066697;28;20035;-40
2021/04/09 07:32:19;;;;;;;14.98;9.23;;;7.70;87.80;;;;;;5067246;28;20036;-40
2021/04/09 07:34:53;;;;;;;13.18;8.63;;;7.90;87.60;;;;;;5066327;28;20031;-40
2021/04/09 07:37:20;;;;;;;14.30;9.88;;;8.00;87.10;;;;;;5066862;28;20025;-38
2021/04/09 07:39:45;;;;;;;11.77;7.90;;;8.10;86.70;;;;;;5066993;28;20136;-37
2021/04/09 07:42:13;;;;;;;15.98;8.93;;;8.30;86.70;;;;;;5066239;28;20537;-41
2021/04/09 07:44:39;;;;;;;12.27;8.98;;;8.40;86.50;;;;;;5066635;28;20488;-37
2021/04/09 07:47:13;;;;;;;13.65;9.55;;;8.50;86.30;;;;;;5066207;28;20137;-37
2021/04/09 07:49:39;;;;;;;11.93;8.80;;;8.60;86.00;;;;;;5066196;28;20047;-39
2021/04/09 07:52:12;;;;;;;15.27;11.27;;;8.70;85.50;;;;;;5066511;28;20036;-37
2021/04/09 07:54:39;;;;;;;12.95;9.25;;;8.80;85.20;;;;;;5055691;28;20071;-39
2021/04/09 07:57:08;;;;;;;11.48;8.93;;;8.90;85.00;;;;;;5066263;28;20021;-39
2021/04/09 07:59:41;;;;;;;10.02;7.90;;;9.00;85.20;;;;;;5067087;28;20027;-39
2021/04/09 08:02:08;;;;;;;12.40;9.50;;;9.10;85.00;;;;;;5066262;28;20020;-42
2021/04/09 08:04:39;;;;;;;10.63;8.32;;;9.10;84.70;;;;;;5065948;28;20027;-36
2021/04/09 08:07:04;;;;;;;13.10;9.57;;;9.20;84.60;;;;;;5066145;28;20044;-37
2021/04/09 08:09:53;;;;;;;10.95;8.55;;;9.30;84.50;;;;;;5065780;28;20035;-39
2021/04/09 08:12:29;;;;;;;15.43;10.02;;;9.30;84.50;;;;;;5060572;28;20048;-37
2021/04/09 08:14:55;;;;;;;12.30;8.68;;;9.30;84.10;;;;;;5062663;28;20131;-38
2021/04/09 08:17:22;;;;;;;12.73;9.30;;;9.30;84.40;;;;;;5065367;28;20531;-39
2021/04/09 08:19:54;;;;;;;11.50;8.40;;;9.40;84.50;;;;;;5064559;28;20121;-38
2021/04/09 08:22:22;;;;;;;10.55;7.75;;;9.50;84.70;;;;;;5046210;28;20024;-39
2021/04/09 08:24:47;;;;;;;10.57;7.30;;;9.50;84.70;;;;;;5062915;28;20044;-39
2021/04/09 08:27:14;;;;;;;10.27;8.40;;;9.60;84.80;;;;;;5065621;28;20050;-36
2021/04/09 08:29:41;;;;;;;11.95;8.32;;;9.60;84.70;;;;;;5064665;28;20052;-39
2021/04/09 08:32:11;;;;;;;12.85;8.75;;;9.60;84.60;;;;;;5064289;28;20105;-38
2021/04/09 08:34:37;;;;;;;13.50;8.95;;;9.70;84.30;;;;;;5065317;28;20088;-40
2021/04/09 08:37:07;;;;;;;13.20;8.32;;;9.70;84.20;;;;;;5065659;28;20048;-39
2021/04/09 08:39:33;;;;;;;10.43;7.88;;;9.80;84.70;;;;;;5064776;28;20032;-37
2021/04/09 08:41:59;;;;;;;11.43;8.45;;;9.90;84.10;;;;;;5065368;28;20036;-39
2021/04/09 08:44:26;;;;;;;11.70;8.00;;;10.00;83.80;;;;;;5063108;28;20451;-39
2021/04/09 08:46:54;;;;;;;15.57;9.00;;;10.00;83.60;;;;;;5064705;28;20062;-39
2021/04/09 08:49:21;;;;;;;14.30;9.25;;;10.10;83.60;;;;;;5064506;28;20033;-40
2021/04/09 08:51:53;;;;;;;11.90;7.88;;;10.10;83.40;;;;;;5011012;28;695307;-37
2021/04/09 08:54:22;;;;;;;11.85;9.95;;;10.20;84.00;;;;;;5020598;28;20033;-34
2021/04/09 08:56:49;;;;;;;13.93;9.27;;;10.30;82.80;;;;;;5011622;28;20029;-35
2021/04/09 08:59:34;;;;;;;10.70;8.10;;;10.30;82.70;;;;;;5020546;28;20346;-37
2021/04/09 09:02:15;;;;;;;10.50;7.60;;;10.40;82.90;;;;;;5007662;28;20084;-38
2021/04/09 09:04:56;;;;;;;10.32;7.78;;;10.50;82.40;;;;;;5004130;28;20449;-36
2021/04/09 09:07:55;;;;;;;9.38;7.00;;;10.60;82.40;;;;;;5021155;28;20091;-37
2021/04/09 09:10:23;;;;;;;11.55;7.85;;;10.70;82.00;;;;;;5002702;28;20053;-37
2021/04/09 09:13:17;;;;;;;11.18;7.28;;;10.70;82.10;;;;;;5007880;28;20042;-37
2021/04/09 09:15:42;;;;;;;;;;;10.60;82.20;;;;;;5009812;28;20415;-38
2021/04/09 09:18:23;;;;;;;10.98;7.28;;;10.60;82.20;;;;;;5007536;28;20384;-37
2021/04/09 09:21:03;;;;;;;9.27;6.50;;;10.60;82.10;;;;;;5007841;28;20033;-38
2021/04/09 09:23:50;;;;;;;12.45;7.15;;;10.60;82.30;;;;;;5005462;28;20030;-34
2021/04/09 09:26:36;;;;;;;9.98;7.60;;;10.60;82.50;;;;;;5010630;28;20466;-37
2021/04/09 09:29:22;;;;;;;11.55;8.35;;;10.60;82.70;;;;;;5017750;28;20031;-38
2021/04/09 09:32:02;;;;;;;9.05;8.02;;;10.70;82.50;;;;;;5016632;28;20037;-38
2021/04/09 09:34:27;;;;;;;13.20;8.15;;;10.80;82.20;;;;;;5017454;28;20432;-35
2021/04/09 09:36:59;;;;;;;11.18;8.10;;;10.90;82.10;;;;;;5017040;28;20559;-39
2021/04/09 09:39:43;;;;;;;11.88;7.45;;;11.00;82.10;;;;;;5021606;28;20756;-39
2021/04/09 09:42:21;;;;;;;9.27;6.80;;;11.20;81.70;;;;;;5008489;28;20473;-38
2021/04/09 09:44:48;;;;;;;8.02;6.65;;;11.40;80.60;;;;;;5001546;28;20112;-38
2021/04/09 09:47:21;;;;;;;10.25;6.25;;;11.50;80.50;;;;;;5013639;28;20022;-37
2021/04/09 09:50:05;;;;;;;8.02;6.70;;;11.60;80.50;;;;;;5001103;28;20045;-39
2021/04/09 09:52:53;;;;;;;8.98;6.60;;;11.70;79.70;;;;;;5013728;28;20037;-38
2021/04/09 09:55:34;;;;;;;8.52;6.90;;;11.80;79.60;;;;;;5001482;28;20478;-37
2021/04/09 09:58:26;;;;;;;11.15;7.22;;;11.90;78.50;;;;;;5013686;28;20057;-38
2021/04/09 10:01:03;;;;;;;10.25;7.00;;;11.90;78.60;;;;;;5001178;28;20454;-38
2021/04/09 10:03:33;;;;;;;9.23;6.68;;;11.90;78.70;;;;;;4998176;28;20134;-36
2021/04/09 10:06:04;;;;;;;9.10;6.50;;;12.00;78.20;;;;;;5002915;28;20396;-36
2021/04/09 10:08:36;;;;;;;9.32;6.30;;;12.00;78.50;;;;;;4995519;28;20116;-39
2021/04/09 10:11:02;;;;;;;8.68;6.18;;;11.90;78.60;;;;;;5007223;28;20088;-35
2021/04/09 10:13:33;;;;;;;9.50;6.82;;;11.90;78.20;;;;;;4995168;28;20031;-38
2021/04/09 10:16:15;;;;;;;8.10;6.78;;;11.90;78.40;;;;;;5006934;28;20040;-37
2021/04/09 10:18:51;;;;;;;9.00;6.72;;;11.90;78.50;;;;;;4995008;28;20033;-37
2021/04/09 10:21:25;;;;;;;10.02;6.22;;;11.90;78.60;;;;;;5008186;28;20342;-38
2021/04/09 10:24:02;;;;;;;9.13;7.25;;;11.90;79.00;;;;;;4993986;28;20130;-38
2021/04/09 10:26:28;;;;;;;9.10;7.38;;;11.80;79.30;;;;;;5007319;28;20026;-36
2021/04/09 10:28:53;;;;;;;8.70;6.38;;;11.80;79.60;;;;;;4994540;28;20052;-36
2021/04/09 10:31:20;;;;;;;9.60;6.18;;;11.70;79.60;;;;;;5001352;28;20045;-37
2021/04/09 10:33:48;;;;;;;8.68;6.38;;;11.70;79.40;;;;;;5001673;28;20339;-37
2021/04/09 10:36:22;;;;;;;7.22;6.20;;;11.70;80.00;;;;;;5004424;28;20111;-38
2021/04/09 10:38:50;;;;;;;7.68;5.97;;;11.60;79.50;;;;;;5001098;28;20375;-39
2021/04/09 10:41:30;;;;;;;8.32;5.63;;;11.60;79.50;;;;;;5002529;28;20104;-37
2021/04/09 10:44:16;;;;;;;6.30;5.53;;;11.50;79.20;;;;;;5001361;28;20384;-36
2021/04/09 10:46:44;;;;;;;8.95;6.00;;;11.50;79.30;;;;;;5003634;28;20430;-38
2021/04/09 10:49:16;;;;;;;6.85;5.60;;;11.40;79.00;;;;;;4996232;28;20030;-37
2021/04/09 10:51:52;;;;;;;;;;;11.50;79.50;;;;;;5005216;28;20057;-36
2021/04/09 10:54:26;;;;;;;6.97;5.60;;;11.60;79.40;;;;;;5002836;28;19960;-36
2021/04/09 10:56:59;;;;;;;8.05;5.80;;;11.70;79.40;;;;;;4988529;28;20048;-39
2021/04/09 10:59:48;;;;;;;8.65;5.65;;;11.90;78.70;;;;;;4995894;28;20018;-39
2021/04/09 11:02:21;;;;;;;6.03;5.00;;;12.00;79.10;;;;;;4987438;28;20034;-34
2021/04/09 11:04:51;;;;;;;7.30;4.80;;;12.20;77.70;;;;;;4997747;28;20040;-39
2021/04/09 11:07:17;;;;;;;6.18;4.38;;;12.30;77.00;;;;;;4987366;28;20034;-35
2021/04/09 11:09:47;;;;;;;6.03;4.40;;;12.40;77.10;;;;;;4995357;28;20559;-37
2021/04/09 11:12:26;;;;;;;5.95;4.20;;;12.50;76.90;;;;;;4988960;28;20064;-37
2021/04/09 11:15:12;;;;;;;4.68;3.40;;;12.60;75.60;;;;;;4994515;28;20025;-36
2021/04/09 11:17:50;;;;;;;4.88;3.33;;;12.50;75.70;;;;;;4987087;28;20030;-32
2021/04/09 11:20:20;;;;;;;3.75;2.88;;;12.50;75.20;;;;;;4996589;28;20049;-37
2021/04/09 11:22:45;;;;;;;4.05;2.70;;;12.50;75.10;;;;;;4987063;28;20112;-37
2021/04/09 11:25:12;;;;;;;4.45;3.13;;;12.60;73.80;;;;;;4995571;28;20565;-38
2021/04/09 11:27:41;;;;;;;5.35;3.60;;;12.70;72.60;;;;;;4989126;28;20205;-35
2021/04/09 11:30:21;;;;;;;5.03;3.42;;;12.70;72.70;;;;;;4992825;28;20030;-34
2021/04/09 11:32:49;;;;;;;5.45;3.55;;;12.70;71.80;;;;;;4989404;28;20157;-37
2021/04/09 11:35:15;;;;;;;3.28;2.90;;;12.70;73.30;;;;;;4992792;28;20076;-37
2021/04/09 11:37:48;;;;;;;3.25;2.78;;;12.80;73.10;;;;;;4999894;28;20041;-35
2021/04/09 11:40:35;;;;;;;5.18;3.22;;;12.90;72.90;;;;;;5001538;28;20405;-38
2021/04/09 11:43:02;;;;;;;3.78;2.70;;;13.10;72.20;;;;;;4990597;28;20018;-37
2021/04/09 11:45:42;;;;;;;3.00;2.70;;;13.20;72.20;;;;;;4991033;28;20045;-36
2021/04/09 11:48:27;;;;;;;2.90;2.40;;;13.30;72.10;;;;;;4990505;28;20030;-36
2021/04/09 11:50:54;;;;;;;4.22;3.20;;;13.50;70.70;;;;;;4992718;28;20054;-35
2021/04/09 11:53:20;;;;;;;5.15;3.00;;;13.50;69.40;;;;;;4991096;28;20105;-39
2021/04/09 11:55:48;;;;;;;2.45;2.25;;;13.40;69.90;;;;;;4990976;28;20029;-36
2021/04/09 11:58:21;;;;;;;3.75;3.05;;;13.20;70.60;;;;;;4993094;28;20034;-39
2021/04/09 12:01:01;;;;;;;5.22;2.80;;;13.10;71.30;;;;;;4990186;28;20061;-38
2021/04/09 12:03:45;;;;;;;5.35;2.42;;;12.90;71.00;;;;;;4985835;28;20030;-39
2021/04/09 12:06:16;;;;;;;3.65;2.75;;;12.80;71.00;;;;;;4991697;28;20014;-38
2021/04/09 12:08:42;;;;;;;2.78;2.10;;;12.80;70.30;;;;;;4991416;28;20034;-37
2021/04/09 12:11:09;;;;;;;4.38;2.88;;;12.90;70.60;;;;;;4989656;28;20116;-39
2021/04/09 12:13:36;;;;;;;4.72;2.80;;;13.10;70.90;;;;;;4994401;28;20792;-38
2021/04/09 12:16:05;;;;;;;3.95;2.80;;;13.30;70.90;;;;;;4987182;28;20022;-37
2021/04/09 12:18:31;;;;;;;2.55;2.33;;;13.50;71.00;;;;;;4996615;28;20121;-37
2021/04/09 12:20:56;;;;;;;3.38;2.83;;;13.60;71.20;;;;;;4987100;28;20148;-36
2021/04/09 12:23:22;;;;;;;5.88;2.55;;;13.70;71.10;;;;;;4996447;28;20117;-36
2021/04/09 12:25:47;;;;;;;2.95;2.45;;;13.80;71.10;;;;;;4986443;28;20026;-39
2021/04/09 12:28:16;;;;;;;2.90;2.33;;;13.90;70.10;;;;;;4997481;28;20026;-37
2021/04/09 12:30:41;;;;;;;2.65;2.35;;;14.10;68.90;;;;;;4985280;28;20065;-38
2021/04/09 12:33:13;;;;;;;3.15;2.33;;;14.10;68.80;;;;;;4997780;28;20088;-39
2021/04/09 12:35:39;;;;;;;4.70;2.57;;;14.20;67.10;;;;;;5003343;28;20026;-38
2021/04/09 12:38:04;;;;;;;3.03;2.40;;;14.30;67.30;;;;;;4991785;28;20424;-37
2021/04/09 12:40:30;;;;;;;2.90;2.60;;;14.30;67.10;;;;;;5005747;28;20353;-39
2021/04/09 12:43:02;;;;;;;2.75;2.50;;;14.40;66.90;;;;;;4994989;28;20439;-39
2021/04/09 12:45:27;;;;;;;2.70;1.83;;;14.40;66.30;;;;;;5003324;28;20477;-36
2021/04/09 12:47:53;;;;;;;2.58;1.90;;;14.40;63.80;;;;;;5000648;28;20038;-38
2021/04/09 12:50:18;;;;;;;2.65;2.13;;;14.40;64.90;;;;;;5005239;28;20054;-39
2021/04/09 12:52:44;;;;;;;2.10;1.90;;;14.40;65.80;;;;;;4979479;28;20121;-36
2021/04/09 12:55:10;;;;;;;5.88;3.00;;;14.40;65.40;;;;;;4998319;28;20034;-37